Time;durP1;ratioP1;P1;durP2;ratioP2;P2;SDS_P1;SDS_P2;PMS_P1;PMS_P2;Temp;Humidity;BMP_temperature;BMP_pressure;BME280_temperature;BME280_humidity;BME280_pressure;Samples;Min_cycle;Max_cycle;Signal;HPM_P1;HPM_P2
2020/12/24 00:01:04;;;;;;;88.97;40.97;;;;;;;6.38;96.14;100072.56;4975826;28;20043;-73
2020/12/24 00:03:30;;;;;;;95.15;40.03;;;;;;;6.20;96.25;100047.78;4960175;28;20042;-74
2020/12/24 00:05:55;;;;;;;94.25;40.80;;;;;;;6.23;96.38;100052.06;4977220;28;20055;-73
2020/12/24 00:08:21;;;;;;;92.53;39.25;;;;;;;6.42;96.21;100070.63;4979911;28;20077;-73
2020/12/24 00:10:48;;;;;;;91.38;38.10;;;;;;;6.73;95.09;100093.91;4979867;28;20042;-78
2020/12/24 00:13:14;;;;;;;99.75;37.42;;;;;;;6.74;94.86;100087.66;4980038;28;20444;-73
2020/12/24 00:15:39;;;;;;;113.93;46.33;;;;;;;6.82;94.29;100085.53;4979649;28;20041;-73
2020/12/24 00:18:05;;;;;;;132.02;41.03;;;;;;;6.72;94.37;100078.94;4963291;28;20034;-74
2020/12/24 00:20:30;;;;;;;109.45;38.28;;;;;;;6.67;94.22;100075.66;4979705;28;20062;-74
2020/12/24 00:22:55;;;;;;;97.22;38.15;;;;;;;6.59;94.56;100068.06;4996740;28;20037;-73
2020/12/24 00:25:21;;;;;;;128.43;39.30;;;;;;;6.58;95.00;100071.66;4979459;28;20037;-73
2020/12/24 00:27:46;;;;;;;157.13;40.22;;;;;;;6.48;94.85;100057.09;4997025;28;20038;-73
2020/12/24 00:30:12;;;;;;;149.32;40.58;;;;;;;6.41;95.40;100075.06;4996452;28;20034;-73
2020/12/24 00:32:37;;;;;;;134.82;41.95;;;;;;;6.31;95.50;100058.72;4963465;28;20615;-74
2020/12/24 00:35:03;;;;;;;150.02;42.28;;;;;;;5.99;95.91;100011.69;4996412;28;20468;-74
2020/12/24 00:37:29;;;;;;;157.40;39.95;;;;;;;6.23;95.96;100079.41;4963370;28;20033;-74
2020/12/24 00:39:54;;;;;;;173.60;42.28;;;;;;;6.13;96.46;100067.50;4979061;28;20403;-74
2020/12/24 00:42:19;;;;;;;137.02;39.45;;;;;;;5.87;96.65;99999.78;4979471;28;20035;-73
2020/12/24 00:44:45;;;;;;;123.57;39.60;;;;;;;6.20;96.84;100066.31;4979278;28;20038;-74
2020/12/24 00:47:10;;;;;;;135.25;38.40;;;;;;;5.96;96.69;100019.72;4979186;28;20081;-74
2020/12/24 00:49:36;;;;;;;111.22;40.55;;;;;;;6.20;96.89;100071.59;4996484;28;20033;-73
2020/12/24 00:52:01;;;;;;;104.05;36.45;;;;;;;5.91;96.82;100012.00;4996363;28;20088;-74
2020/12/24 00:54:26;;;;;;;131.15;38.42;;;;;;;6.17;95.98;100047.88;4996382;28;20033;-73
2020/12/24 00:56:52;;;;;;;106.45;37.13;;;;;;;5.89;96.04;100011.19;4995947;28;20038;-75
2020/12/24 00:59:18;;;;;;;106.65;34.72;;;;;;;6.22;96.27;100064.44;4996774;28;20064;-74
2020/12/24 01:01:43;;;;;;;133.27;37.50;;;;;;;6.26;95.93;100066.00;4996263;28;20531;-73
2020/12/24 01:04:09;;;;;;;92.93;36.63;;;;;;;6.15;95.99;100047.09;4996332;28;20190;-73
2020/12/24 01:06:34;;;;;;;98.72;34.45;;;;;;;6.16;96.10;100070.00;4978986;28;20181;-73
2020/12/24 01:09:00;;;;;;;93.38;33.78;;;;;;;6.12;96.48;100073.72;4996171;28;20073;-73
2020/12/24 01:11:27;;;;;;;93.40;35.63;;;;;;;6.13;96.52;100075.44;4996032;28;20070;-72
2020/12/24 01:13:53;;;;;;;108.72;35.42;;;;;;;6.17;96.59;100066.44;4996162;28;20046;-74
2020/12/24 01:16:19;;;;;;;99.38;35.70;;;;;;;6.00;96.54;100058.41;4978407;28;20026;-73
2020/12/24 01:18:45;;;;;;;92.40;38.50;;;;;;;6.01;96.79;100063.63;4995173;28;20038;-74
2020/12/24 01:21:11;;;;;;;84.78;36.35;;;;;;;5.92;97.13;100037.56;4995578;28;20053;-73
2020/12/24 01:23:36;;;;;;;88.97;37.05;;;;;;;5.96;96.51;100036.47;4996134;28;20038;-73
2020/12/24 01:26:01;;;;;;;126.88;39.60;;;;;;;6.02;96.33;100051.25;4995430;28;20049;-73
2020/12/24 01:28:27;;;;;;;112.32;37.72;;;;;;;6.21;96.56;100051.28;4995700;28;20498;-74
2020/12/24 01:30:53;;;;;;;81.45;36.08;;;;;;;5.91;96.17;100005.88;4995747;28;20114;-82
2020/12/24 01:33:18;;;;;;;92.03;37.90;;;;;;;6.17;96.61;100053.19;4995752;28;20058;-74
2020/12/24 01:35:44;;;;;;;78.72;37.05;;;;;;;6.19;96.48;100059.28;4996044;28;20048;-74
2020/12/24 01:38:09;;;;;;;95.70;38.38;;;;;;;6.07;96.94;100049.22;4977871;28;20035;-74
2020/12/24 01:40:34;;;;;;;94.47;39.10;;;;;;;6.04;97.26;100044.09;4978104;28;20117;-74
2020/12/24 01:43:01;;;;;;;91.75;39.72;;;;;;;6.05;97.78;100052.88;4961909;28;20483;-73
2020/12/24 01:45:26;;;;;;;84.65;36.67;;;;;;;5.97;97.61;100032.91;4995394;28;20049;-74
2020/12/24 01:47:51;;;;;;;76.22;36.03;;;;;;;6.05;97.76;100051.09;4978031;28;20030;-74
2020/12/24 01:50:17;;;;;;;80.82;36.22;;;;;;;6.08;97.56;100045.69;4995016;28;20038;-73
2020/12/24 01:52:42;;;;;;;88.07;38.80;;;;;;;5.99;97.26;100024.91;4977875;28;20061;-75
2020/12/24 01:55:10;;;;;;;85.60;37.45;;;;;;;5.89;97.61;100019.13;4994939;28;20482;-74
2020/12/24 01:57:37;;;;;;;87.45;38.80;;;;;;;5.96;98.02;100035.63;4995305;28;20121;-74
2020/12/24 02:00:10;;;;;;;90.07;38.33;;;;;;;6.01;97.90;100033.63;4994765;28;20499;-74
2020/12/24 02:02:36;;;;;;;88.30;38.20;;;;;;;5.95;98.10;100024.16;4977964;28;20112;-75
2020/12/24 02:05:02;;;;;;;93.72;37.33;;;;;;;6.31;96.93;100032.25;4994581;28;20082;-74
2020/12/24 02:07:27;;;;;;;112.93;36.70;;;;;;;6.41;95.80;100015.91;4995038;28;20046;-73
2020/12/24 02:09:53;;;;;;;104.43;36.85;;;;;;;6.45;95.09;100028.06;4994906;28;20546;-75
2020/12/24 02:12:19;;;;;;;90.07;35.15;;;;;;;6.27;94.90;99987.41;4994781;28;20126;-75
2020/12/24 02:14:45;;;;;;;95.78;36.55;;;;;;;6.37;95.36;100020.50;4977638;28;20117;-75
2020/12/24 02:17:10;;;;;;;112.88;35.90;;;;;;;6.21;95.11;99971.81;4994654;28;20038;-76
2020/12/24 02:19:36;;;;;;;99.50;36.40;;;;;;;6.23;94.79;99986.69;4994893;28;20038;-74
2020/12/24 02:22:03;;;;;;;109.53;37.33;;;;;;;6.39;95.29;100008.06;4994588;28;20038;-75
2020/12/24 02:24:28;;;;;;;137.43;39.15;;;;;;;6.13;95.55;99953.63;4977232;28;20528;-75
2020/12/24 02:26:55;;;;;;;93.30;36.78;;;;;;;6.35;95.40;99995.84;4977562;28;20106;-75
2020/12/24 02:29:21;;;;;;;162.80;39.22;;;;;;;6.27;95.64;99988.28;4976893;28;20069;-75
2020/12/24 02:31:47;;;;;;;120.28;38.97;;;;;;;6.06;96.09;99949.53;4977437;28;20129;-75
2020/12/24 02:34:12;;;;;;;144.27;39.10;;;;;;;6.12;96.26;99962.50;4994468;28;20113;-75
2020/12/24 02:36:38;;;;;;;112.90;37.05;;;;;;;6.20;96.40;99978.91;4977211;28;20061;-75
2020/12/24 02:39:03;;;;;;;103.85;38.30;;;;;;;6.21;96.67;99975.31;4994159;28;20042;-75
2020/12/24 02:41:29;;;;;;;126.78;37.97;;;;;;;5.90;96.77;99919.41;4994348;28;20085;-75
2020/12/24 02:43:54;;;;;;;100.35;38.00;;;;;;;6.17;96.75;99973.72;4961082;28;20034;-76
2020/12/24 02:46:20;;;;;;;134.45;37.30;;;;;;;6.18;96.33;99959.59;4977268;28;20388;-75
2020/12/24 02:48:45;;;;;;;110.97;39.08;;;;;;;6.10;96.85;99963.53;4977335;28;20476;-75
2020/12/24 02:51:11;;;;;;;102.75;38.35;;;;;;;6.24;97.01;99983.13;4977220;28;20042;-74
2020/12/24 02:53:36;;;;;;;96.55;39.05;;;;;;;6.23;96.97;99973.47;4994144;28;20035;-74
2020/12/24 02:56:03;;;;;;;130.13;38.85;;;;;;;6.19;97.02;99969.25;4994098;28;20030;-75
2020/12/24 02:58:28;;;;;;;98.68;38.17;;;;;;;6.09;97.32;99960.00;4994669;28;20077;-75
2020/12/24 03:00:53;;;;;;;94.75;39.08;;;;;;;6.10;97.44;99951.13;4994201;28;20050;-75
2020/12/24 03:03:20;;;;;;;91.10;38.22;;;;;;;6.02;97.55;99932.94;4976351;28;20462;-74
2020/12/24 03:05:46;;;;;;;148.35;40.95;;;;;;;6.24;97.77;99946.03;4973362;28;20047;-74
2020/12/24 03:08:11;;;;;;;97.30;40.22;;;;;;;6.02;97.25;99906.47;4957279;28;20464;-74
2020/12/24 03:10:37;;;;;;;93.82;39.72;;;;;;;6.20;97.28;99943.63;4974469;28;20381;-74
2020/12/24 03:13:02;;;;;;;97.65;37.22;;;;;;;6.15;97.37;99930.59;4974217;28;20027;-76
2020/12/24 03:15:27;;;;;;;119.85;40.42;;;;;;;5.92;97.67;99912.28;4973284;28;20047;-74
2020/12/24 03:17:54;;;;;;;87.03;38.20;;;;;;;6.03;98.34;99925.88;4973503;28;20469;-74
2020/12/24 03:20:19;;;;;;;93.68;38.78;;;;;;;5.98;98.24;99919.91;4973212;28;20043;-72
2020/12/24 03:22:45;;;;;;;123.85;39.38;;;;;;;5.81;98.35;99893.34;4974801;28;20043;-72
2020/12/24 03:25:10;;;;;;;107.00;39.75;;;;;;;5.97;98.51;99923.50;4973996;28;20035;-73
2020/12/24 03:27:36;;;;;;;147.05;39.25;;;;;;;5.92;98.67;99914.91;4973151;28;20031;-73
2020/12/24 03:30:02;;;;;;;136.50;38.15;;;;;;;5.92;98.63;99912.28;4974063;28;20031;-73
2020/12/24 03:32:28;;;;;;;105.68;36.17;;;;;;;6.14;98.10;99928.88;4974187;28;20407;-73
2020/12/24 03:34:53;;;;;;;120.43;36.20;;;;;;;5.94;97.11;99871.56;4973152;28;20114;-73
2020/12/24 03:37:18;;;;;;;102.70;34.72;;;;;;;6.25;96.03;99917.75;4956632;28;20034;-74
2020/12/24 03:39:44;;;;;;;124.60;37.42;;;;;;;6.27;96.25;99922.06;4973735;28;20041;-73
2020/12/24 03:42:09;;;;;;;175.32;37.88;;;;;;;6.25;96.27;99901.88;4972842;28;20035;-73
2020/12/24 03:44:36;;;;;;;199.95;37.58;;;;;;;6.32;95.96;99906.81;4957041;28;20035;-74
2020/12/24 03:47:04;;;;;;;120.20;36.92;;;;;;;6.00;96.14;99868.63;4972576;28;20054;-79
2020/12/24 03:49:29;;;;;;;151.07;37.75;;;;;;;5.98;96.97;99891.69;4973973;28;20472;-73
2020/12/24 03:51:55;;;;;;;115.68;37.47;;;;;;;5.90;97.06;99882.34;4972776;28;20039;-75
2020/12/24 03:54:20;;;;;;;150.45;40.50;;;;;;;5.95;97.48;99917.41;4973609;28;20135;-75
2020/12/24 03:56:45;;;;;;;193.23;39.40;;;;;;;5.74;97.96;99882.19;4973013;28;20035;-75
2020/12/24 03:59:11;;;;;;;183.38;40.85;;;;;;;5.85;98.45;99902.84;4973758;28;20043;-75
2020/12/24 04:01:36;;;;;;;121.05;40.75;;;;;;;5.92;98.68;99922.88;4973974;28;20507;-75
2020/12/24 04:04:02;;;;;;;200.43;42.78;;;;;;;5.90;98.49;99916.75;4973872;28;20396;-81
2020/12/24 04:06:27;;;;;;;153.55;39.47;;;;;;;5.78;98.44;99877.59;4956316;28;20069;-75
2020/12/24 04:08:52;;;;;;;152.77;40.70;;;;;;;5.94;98.27;99905.13;4972559;28;20118;-75
2020/12/24 04:11:18;;;;;;;175.18;40.45;;;;;;;5.75;98.10;99868.88;4972579;28;20419;-75
2020/12/24 04:13:44;;;;;;;123.70;39.50;;;;;;;5.83;98.21;99875.59;4972594;28;20046;-72
2020/12/24 04:16:09;;;;;;;133.68;38.92;;;;;;;5.75;97.95;99842.41;4956130;28;20035;-73
2020/12/24 04:18:35;;;;;;;136.82;39.65;;;;;;;5.91;97.63;99879.66;4972734;28;20046;-76
2020/12/24 04:21:00;;;;;;;112.05;37.65;;;;;;;5.98;97.77;99877.56;4973978;28;20038;-75
2020/12/24 04:23:25;;;;;;;117.07;35.90;;;;;;;6.01;97.58;99861.53;4973696;28;20031;-75
2020/12/24 04:25:51;;;;;;;104.13;37.28;;;;;;;5.84;97.74;99846.41;4972801;28;20031;-75
2020/12/24 04:28:16;;;;;;;129.20;36.42;;;;;;;5.67;98.36;99828.69;4973517;28;20041;-76
2020/12/24 04:30:43;;;;;;;90.63;37.17;;;;;;;5.87;98.54;99856.84;4973824;28;20390;-75
2020/12/24 04:33:10;;;;;;;86.80;35.17;;;;;;;5.92;98.19;99832.84;4973513;28;20117;-75
2020/12/24 04:35:35;;;;;;;98.25;33.00;;;;;;;5.72;97.64;99784.34;4973621;28;20093;-74
2020/12/24 04:38:01;;;;;;;102.25;34.60;;;;;;;6.00;97.50;99831.56;4972563;28;20039;-73
2020/12/24 04:40:26;;;;;;;120.13;35.25;;;;;;;5.89;97.72;99832.97;4973886;28;20039;-75
2020/12/24 04:42:53;;;;;;;130.02;36.45;;;;;;;5.89;97.80;99822.41;4972597;28;20031;-75
2020/12/24 04:45:19;;;;;;;103.07;33.67;;;;;;;6.01;97.66;99840.38;4956182;28;20069;-75
2020/12/24 04:47:45;;;;;;;82.75;32.88;;;;;;;6.10;97.40;99847.88;4972546;28;20472;-74
2020/12/24 04:50:13;;;;;;;83.80;30.65;;;;;;;6.10;96.82;99847.88;4973466;28;20043;-74
2020/12/24 04:52:38;;;;;;;107.05;31.75;;;;;;;6.14;96.77;99849.41;4959312;28;20038;-73
2020/12/24 04:55:04;;;;;;;76.80;32.75;;;;;;;6.10;96.65;99858.47;4960308;28;20043;-75
2020/12/24 04:57:31;;;;;;;85.97;33.13;;;;;;;6.06;97.27;99848.06;4975566;28;20062;-75
2020/12/24 04:59:59;;;;;;;98.82;34.28;;;;;;;6.03;97.43;99846.44;4976974;28;20118;-74
2020/12/24 05:02:24;;;;;;;76.25;33.00;;;;;;;6.02;97.22;99842.94;4976817;28;20388;-75
2020/12/24 05:04:54;;;;;;;78.78;34.75;;;;;;;5.97;97.27;99829.03;4977502;28;20034;-75
2020/12/24 05:07:19;;;;;;;82.60;33.20;;;;;;;6.28;96.39;99849.63;4979067;28;20034;-74
2020/12/24 05:09:49;;;;;;;82.85;32.58;;;;;;;6.23;96.07;99822.50;4996390;28;20034;-74
2020/12/24 05:12:27;;;;;;;76.63;31.42;;;;;;;6.25;95.87;99836.50;4996023;28;20039;-75
2020/12/24 05:14:52;;;;;;;74.43;32.72;;;;;;;6.07;95.91;99818.00;4978959;28;20468;-74
2020/12/24 05:17:21;;;;;;;75.80;32.53;;;;;;;6.11;96.26;99817.81;4995742;28;20046;-74
2020/12/24 05:19:59;;;;;;;86.97;33.35;;;;;;;6.01;96.34;99822.69;4996208;28;20121;-74
2020/12/24 05:22:24;;;;;;;80.97;31.80;;;;;;;5.87;96.58;99813.63;4978479;28;20065;-73
2020/12/24 05:24:50;;;;;;;70.10;32.10;;;;;;;5.91;96.75;99826.72;4978756;28;20034;-73
2020/12/24 05:27:21;;;;;;;75.28;31.13;;;;;;;5.90;96.62;99826.75;4995487;28;20077;-73
2020/12/24 05:29:51;;;;;;;89.75;32.58;;;;;;;5.73;96.50;99807.22;4995684;28;20439;-73
2020/12/24 05:32:27;;;;;;;72.45;31.75;;;;;;;5.64;96.83;99789.13;4978456;28;20093;-72
2020/12/24 05:35:04;;;;;;;155.65;34.78;;;;;;;5.75;97.50;99831.81;4995944;28;20037;-74
2020/12/24 05:37:30;;;;;;;109.65;34.95;;;;;;;5.79;97.64;99829.03;4995622;28;20038;-74
2020/12/24 05:39:56;;;;;;;158.38;34.40;;;;;;;5.84;97.27;99819.94;4995581;28;20046;-74
2020/12/24 05:42:24;;;;;;;176.25;36.20;;;;;;;5.60;96.89;99792.88;4961732;28;20149;-74
2020/12/24 05:44:50;;;;;;;188.15;38.88;;;;;;;5.52;97.16;99770.34;4978654;28;20062;-74
2020/12/24 05:47:25;;;;;;;137.40;35.22;;;;;;;5.81;96.47;99813.97;4977883;28;20074;-74
2020/12/24 05:49:50;;;;;;;108.43;33.72;;;;;;;5.92;96.43;99827.56;4978251;28;20062;-73
2020/12/24 05:52:16;;;;;;;135.02;35.45;;;;;;;5.66;96.49;99779.34;4977683;28;20550;-73
2020/12/24 05:54:44;;;;;;;122.45;35.50;;;;;;;5.83;96.71;99817.38;4995261;28;20030;-73
2020/12/24 05:57:11;;;;;;;103.80;33.72;;;;;;;5.86;96.87;99822.53;4995490;28;20571;-77
2020/12/24 05:59:37;;;;;;;141.70;35.10;;;;;;;5.76;97.34;99808.88;4978566;28;20038;-74
2020/12/24 06:02:06;;;;;;;159.20;35.17;;;;;;;5.87;97.06;99803.06;4978138;28;20040;-72
2020/12/24 06:04:44;;;;;;;110.20;34.80;;;;;;;5.82;97.15;99805.09;4976847;28;20085;-74
2020/12/24 06:07:19;;;;;;;88.60;33.92;;;;;;;5.88;97.30;99796.81;4977596;28;20081;-75
2020/12/24 06:09:46;;;;;;;126.97;33.53;;;;;;;5.82;97.00;99790.06;4995175;28;20464;-75
2020/12/24 06:12:26;;;;;;;146.85;35.00;;;;;;;5.86;97.04;99799.56;4994698;28;20105;-80
2020/12/24 06:14:56;;;;;;;115.88;31.98;;;;;;;5.67;97.04;99749.28;4995048;28;20034;-75
2020/12/24 06:17:23;;;;;;;98.65;30.95;;;;;;;5.89;96.98;99786.19;4994445;28;20482;-74
2020/12/24 06:19:49;;;;;;;69.30;31.95;;;;;;;5.56;96.88;99748.94;4961407;28;20034;-75
2020/12/24 06:22:16;;;;;;;66.75;29.65;;;;;;;5.87;97.14;99782.72;4994487;28;20113;-74
2020/12/24 06:24:44;;;;;;;70.65;31.13;;;;;;;5.82;97.44;99790.06;4961283;28;20050;-75
2020/12/24 06:27:35;;;;;;;68.13;30.35;;;;;;;5.87;96.87;99797.75;4994670;28;20069;-74
2020/12/24 06:30:10;;;;;;;65.97;29.52;;;;;;;5.84;96.71;99792.63;4994546;28;20109;-75
2020/12/24 06:32:46;;;;;;;70.53;30.73;;;;;;;5.87;96.58;99793.31;4994238;28;20030;-75
2020/12/24 06:35:11;;;;;;;72.07;31.65;;;;;;;5.85;96.00;99789.03;4994913;28;20026;-75
2020/12/24 06:37:41;;;;;;;65.68;31.13;;;;;;;5.81;96.28;99792.78;4961030;28;20108;-74
2020/12/24 06:40:08;;;;;;;91.32;30.35;;;;;;;5.73;95.75;99783.41;4994550;28;20080;-75
2020/12/24 06:42:36;;;;;;;75.00;30.27;;;;;;;5.79;95.42;99799.91;4994061;28;20234;-74
2020/12/24 06:45:03;;;;;;;72.78;30.52;;;;;;;5.64;95.41;99794.44;4994638;28;20511;-75
2020/12/24 06:47:29;;;;;;;65.68;30.77;;;;;;;5.62;95.88;99792.78;4976957;28;20038;-75
2020/12/24 06:49:54;;;;;;;64.57;29.33;;;;;;;5.71;95.52;99793.22;4994249;28;20034;-75
2020/12/24 06:52:31;;;;;;;80.70;28.52;;;;;;;5.69;95.54;99786.25;4994494;28;20042;-73
2020/12/24 06:55:16;;;;;;;65.35;29.42;;;;;;;5.60;95.75;99778.78;4976765;28;20038;-75
2020/12/24 06:57:43;;;;;;;78.05;28.35;;;;;;;5.66;95.63;99787.28;4977172;28;20041;-74
2020/12/24 07:00:17;;;;;;;84.22;30.35;;;;;;;5.66;95.66;99787.28;4993998;28;20468;-74
2020/12/24 07:02:46;;;;;;;93.20;30.42;;;;;;;5.48;95.77;99748.44;4994423;28;20058;-74
2020/12/24 07:05:39;;;;;;;68.50;29.80;;;;;;;5.64;95.50;99780.34;4994104;28;20054;-73
2020/12/24 07:08:05;;;;;;;83.47;30.17;;;;;;;5.68;95.71;99777.47;4994136;28;20041;-73
2020/12/24 07:10:49;;;;;;;150.98;31.30;;;;;;;5.62;95.71;99767.19;4993613;28;20484;-74
2020/12/24 07:13:51;;;;;;;182.85;33.38;;;;;;;5.66;96.08;99792.56;4993970;28;20026;-74
2020/12/24 07:16:16;;;;;;;160.90;32.97;;;;;;;5.78;95.77;99793.75;4913680;29;20127;-79
2020/12/24 07:18:42;;;;;;;176.88;33.42;;;;;;;5.54;96.11;99755.25;4960967;28;20078;-74
2020/12/24 07:21:09;;;;;;;182.90;32.90;;;;;;;5.62;96.68;99780.41;4993912;28;20482;-73
2020/12/24 07:23:37;;;;;;;163.52;33.25;;;;;;;5.77;96.56;99796.50;4993597;28;20042;-72
2020/12/24 07:26:10;;;;;;;207.50;34.65;;;;;;;5.68;96.51;99793.34;4976430;28;20037;-72
2020/12/24 07:28:38;;;;;;;168.50;34.03;;;;;;;5.69;96.86;99797.72;4993379;28;20034;-72
2020/12/24 07:31:11;;;;;;;136.45;32.22;;;;;;;5.74;96.71;99797.50;4976628;28;20034;-72
2020/12/24 07:33:45;;;;;;;124.73;32.70;;;;;;;5.78;96.78;99788.47;4993504;28;20033;-73
2020/12/24 07:36:11;;;;;;;155.82;33.75;;;;;;;5.40;96.20;99719.75;4993916;28;20256;-72
2020/12/24 07:38:36;;;;;;;92.05;31.85;;;;;;;5.70;96.59;99758.91;4993248;28;20112;-74
2020/12/24 07:41:02;;;;;;;109.40;31.30;;;;;;;5.80;96.32;99767.25;4993873;28;20081;-76
2020/12/24 07:43:27;;;;;;;84.88;31.42;;;;;;;5.84;96.38;99763.50;4993923;28;20026;-77
2020/12/24 07:45:53;;;;;;;91.95;30.45;;;;;;;5.88;96.01;99749.19;4993933;28;20384;-75
2020/12/24 07:48:21;;;;;;;78.15;29.10;;;;;;;5.88;95.72;99757.13;4975828;28;20043;-83
2020/12/24 07:50:48;;;;;;;65.82;28.00;;;;;;;5.71;95.38;99719.13;4993571;28;20037;-76
2020/12/24 07:53:19;;;;;;;61.95;28.77;;;;;;;5.69;95.62;99717.47;4976288;28;20426;-74
2020/12/24 07:55:45;;;;;;;75.25;30.30;;;;;;;5.84;96.16;99755.56;4976297;28;20427;-75
2020/12/24 07:58:12;;;;;;;61.05;28.48;;;;;;;5.99;96.26;99770.75;4976438;28;20041;-75
2020/12/24 08:00:43;;;;;;;64.93;28.77;;;;;;;6.15;95.71;99763.75;4993197;28;20069;-74
2020/12/24 08:03:09;;;;;;;65.28;29.08;;;;;;;6.17;94.87;99753.94;4993358;28;20104;-74
2020/12/24 08:05:35;;;;;;;59.50;28.67;;;;;;;6.14;95.21;99746.16;4976887;28;20982;-76
2020/12/24 08:08:00;;;;;;;61.38;29.73;;;;;;;6.30;94.59;99739.16;4959747;28;20034;-74
2020/12/24 08:10:26;;;;;;;57.28;26.90;;;;;;;6.37;94.30;99739.72;4959019;28;20396;-75
2020/12/24 08:12:52;;;;;;;51.60;26.48;;;;;;;6.42;93.65;99742.09;4943447;28;20034;-76
2020/12/24 08:15:20;;;;;;;52.10;28.38;;;;;;;6.31;93.67;99743.50;4975770;28;20519;-75
2020/12/24 08:17:57;;;;;;;55.55;28.38;;;;;;;6.19;94.38;99738.00;4975232;28;20044;-74
2020/12/24 08:20:33;;;;;;;60.30;28.77;;;;;;;6.21;94.73;99733.47;4993145;28;20030;-73
2020/12/24 08:23:07;;;;;;;50.05;25.58;;;;;;;6.44;94.53;99734.94;4975829;28;20043;-75
2020/12/24 08:25:32;;;;;;;;;;;;;;;6.38;94.27;99716.72;4993618;28;20030;-76
2020/12/24 08:27:58;;;;;;;49.67;24.77;;;;;;;6.52;93.74;99724.78;4996445;28;20378;-74
2020/12/24 08:30:25;;;;;;;53.25;27.10;;;;;;;6.51;93.45;99715.13;4996773;28;20089;-75
2020/12/24 08:32:50;;;;;;;53.67;27.25;;;;;;;6.45;93.76;99718.94;4996497;28;20054;-73
2020/12/24 08:35:16;;;;;;;55.90;28.05;;;;;;;6.53;93.88;99707.97;4979565;28;20062;-74
2020/12/24 08:37:41;;;;;;;55.40;27.67;;;;;;;6.52;93.33;99711.56;4996632;28;20027;-75
2020/12/24 08:40:25;;;;;;;52.60;27.02;;;;;;;6.63;93.27;99706.53;4979302;28;20045;-74
2020/12/24 08:42:58;;;;;;;;;;;;;;;6.71;92.61;99706.16;4996796;28;20105;-75
2020/12/24 08:45:24;;;;;;;42.50;22.58;;;;;;;6.77;92.39;99706.69;4997025;28;20008;-75
2020/12/24 08:47:49;;;;;;;41.63;21.48;;;;;;;6.70;92.37;99681.44;4978930;28;20134;-76
2020/12/24 08:50:27;;;;;;;36.38;21.13;;;;;;;6.71;91.37;99669.03;4996505;28;20093;-76
2020/12/24 08:52:52;;;;;;;39.08;21.77;;;;;;;6.83;91.80;99685.13;4996668;28;20118;-75
2020/12/24 08:55:18;;;;;;;40.03;22.63;;;;;;;6.85;92.04;99690.34;4996456;28;20125;-76
2020/12/24 08:57:49;;;;;;;38.05;21.67;;;;;;;6.82;92.39;99693.16;4962738;28;20035;-76
2020/12/24 09:00:16;;;;;;;39.83;22.55;;;;;;;6.92;92.73;99710.28;4996501;28;20093;-76
2020/12/24 09:02:41;;;;;;;42.17;22.35;;;;;;;6.84;92.35;99702.75;4979248;28;20039;-74
2020/12/24 09:05:07;;;;;;;35.33;21.85;;;;;;;7.00;93.08;99712.53;4996269;28;20112;-75
2020/12/24 09:07:37;;;;;;;39.75;22.25;;;;;;;7.04;92.67;99698.16;4996455;28;20077;-76
2020/12/24 09:10:11;;;;;;;40.03;23.23;;;;;;;7.07;92.51;99698.88;4996603;28;20034;-76
2020/12/24 09:12:39;;;;;;;39.72;22.35;;;;;;;7.15;92.41;99701.97;4978781;28;20070;-76
2020/12/24 09:15:09;;;;;;;40.50;24.13;;;;;;;7.03;92.22;99669.94;4996173;28;20034;-76
2020/12/24 09:17:35;;;;;;;36.95;21.90;;;;;;;7.18;92.18;99693.84;4978725;28;20424;-78
2020/12/24 09:20:13;;;;;;;44.08;22.40;;;;;;;7.23;92.24;99709.47;4996337;28;20042;-76
2020/12/24 09:23:00;;;;;;;38.33;22.05;;;;;;;7.36;91.36;99696.41;4996018;28;20443;-76
2020/12/24 09:25:37;;;;;;;37.85;22.33;;;;;;;7.38;91.54;99698.03;4995988;28;20034;-76
2020/12/24 09:28:04;;;;;;;38.75;21.95;;;;;;;7.44;91.49;99695.03;4996111;28;20447;-75
2020/12/24 09:30:30;;;;;;;37.25;21.67;;;;;;;7.54;91.20;99686.56;4996099;28;20038;-76
2020/12/24 09:33:00;;;;;;;37.92;22.10;;;;;;;7.33;90.89;99648.81;4995733;28;20034;-76
2020/12/24 09:35:27;;;;;;;36.75;21.33;;;;;;;7.53;90.32;99664.47;4995937;28;20034;-76
2020/12/24 09:37:54;;;;;;;34.35;20.02;;;;;;;7.63;90.53;99675.44;4994613;28;20034;-75
2020/12/24 09:40:20;;;;;;;36.30;21.02;;;;;;;7.59;90.27;99663.25;4978362;28;20488;-76
2020/12/24 09:42:46;;;;;;;33.65;19.40;;;;;;;7.73;90.46;99673.97;4995450;28;20105;-76
2020/12/24 09:45:12;;;;;;;32.00;19.33;;;;;;;7.52;89.74;99630.03;4995602;28;20038;-77
2020/12/24 09:47:37;;;;;;;30.65;19.10;;;;;;;7.70;90.01;99658.19;4995762;28;20044;-77
2020/12/24 09:50:05;;;;;;;33.75;20.30;;;;;;;7.75;90.34;99643.72;4995546;28;20096;-76
2020/12/24 09:52:30;;;;;;;32.15;19.05;;;;;;;7.74;89.58;99630.53;4995707;28;20042;-75
2020/12/24 09:54:56;;;;;;;28.80;18.70;;;;;;;7.58;89.33;99608.47;4978027;28;20034;-76
2020/12/24 09:57:21;;;;;;;33.33;18.80;;;;;;;7.85;89.62;99645.84;4978295;28;20038;-75
2020/12/24 09:59:46;;;;;;;34.33;20.85;;;;;;;7.70;88.87;99634.28;4977787;28;20480;-76
2020/12/24 10:02:12;;;;;;;38.65;22.08;;;;;;;7.88;88.79;99625.25;4978157;28;20035;-77
2020/12/24 10:04:37;;;;;;;36.03;21.13;;;;;;;8.04;88.26;99639.34;4995175;28;20042;-76
2020/12/24 10:07:03;;;;;;;34.40;20.92;;;;;;;7.94;88.01;99632.88;4995436;28;20033;-74
2020/12/24 10:09:28;;;;;;;34.22;20.67;;;;;;;8.07;87.38;99637.44;4995007;28;20073;-76
2020/12/24 10:11:54;;;;;;;33.47;20.35;;;;;;;7.98;87.53;99639.69;4977748;28;20109;-75
2020/12/24 10:14:20;;;;;;;31.70;19.70;;;;;;;7.99;87.03;99622.81;4995218;28;20101;-75
2020/12/24 10:16:45;;;;;;;37.47;22.42;;;;;;;8.02;87.77;99635.06;4994923;28;20041;-74
2020/12/24 10:19:11;;;;;;;38.35;23.10;;;;;;;8.10;87.13;99634.59;4961419;28;20038;-76
2020/12/24 10:21:38;;;;;;;42.42;24.02;;;;;;;8.09;88.03;99635.53;4994934;28;20403;-76
2020/12/24 10:24:04;;;;;;;44.70;24.38;;;;;;;8.15;86.73;99627.22;4995212;28;20140;-76
2020/12/24 10:26:29;;;;;;;44.95;24.95;;;;;;;7.90;87.29;99602.13;4994936;28;20117;-75
2020/12/24 10:28:55;;;;;;;42.22;23.52;;;;;;;8.18;87.20;99621.72;4961172;28;20113;-75
2020/12/24 10:31:20;;;;;;;41.80;24.65;;;;;;;8.13;85.87;99599.91;4995195;28;20034;-76
2020/12/24 10:33:45;;;;;;;54.40;27.52;;;;;;;8.17;86.60;99626.16;4961134;28;20093;-74
2020/12/24 10:36:11;;;;;;;44.65;25.77;;;;;;;7.96;87.44;99591.13;4961083;28;20070;-76
2020/12/24 10:38:36;;;;;;;42.95;25.10;;;;;;;7.93;86.91;99559.47;4977591;28;20038;-77
2020/12/24 10:41:03;;;;;;;42.25;24.45;;;;;;;7.97;86.53;99555.66;4994429;28;20042;-76
2020/12/24 10:43:28;;;;;;;46.10;26.27;;;;;;;8.16;86.86;99578.47;4977156;28;20027;-75
2020/12/24 10:45:53;;;;;;;44.63;25.45;;;;;;;8.31;85.81;99574.88;4977000;28;20030;-76
2020/12/24 10:48:19;;;;;;;49.53;25.48;;;;;;;8.22;85.52;99525.81;4961083;28;20512;-75
2020/12/24 10:50:44;;;;;;;45.92;27.63;;;;;;;8.38;86.83;99570.03;4994014;28;20071;-77
2020/12/24 10:53:10;;;;;;;40.58;23.33;;;;;;;8.44;85.75;99567.88;4961347;28;20031;-76
2020/12/24 10:55:35;;;;;;;44.88;24.25;;;;;;;8.37;85.47;99547.94;4977348;28;20041;-76
2020/12/24 10:58:01;;;;;;;50.38;25.73;;;;;;;8.57;86.01;99578.59;4994533;28;20038;-75
2020/12/24 11:00:26;;;;;;;50.38;25.20;;;;;;;8.32;86.47;99528.75;4977148;28;20062;-75
2020/12/24 11:02:51;;;;;;;47.60;25.50;;;;;;;8.41;87.36;99562.75;4993926;28;20030;-75
2020/12/24 11:05:17;;;;;;;50.42;25.95;;;;;;;8.25;86.79;99524.75;4976930;28;20050;-76
2020/12/24 11:07:43;;;;;;;46.05;25.30;;;;;;;8.37;86.90;99547.94;4994069;28;20046;-78
2020/12/24 11:10:08;;;;;;;48.55;24.50;;;;;;;8.33;86.82;99547.25;4976864;28;20049;-76
2020/12/24 11:12:34;;;;;;;46.88;24.88;;;;;;;8.25;86.81;99530.06;4976625;28;20039;-76
2020/12/24 11:14:59;;;;;;;47.35;24.98;;;;;;;8.29;87.40;99527.13;4960564;28;20030;-75
2020/12/24 11:17:25;;;;;;;46.65;24.77;;;;;;;8.24;87.43;99517.75;4993938;28;20543;-76
2020/12/24 11:19:50;;;;;;;49.78;25.63;;;;;;;8.29;88.36;99548.38;4993820;28;20045;-77
2020/12/24 11:22:16;;;;;;;51.55;25.92;;;;;;;8.27;88.54;99544.97;4976407;28;20034;-76